Terminal Aerodrome Forecast
Issued by NWS

Home | Current Version | Previous Version | Text Only | Print | Product List | Glossary On
Versions: 1 2 3 4 5 6 7 8 9 10 11 12 13 14 15
000
FTUS42 KMLB 010538
TAFLEE
TAF
KLEE 010538Z 0106/0206 02007KT 5SM BR OVC003
     FM010900 03008KT 3SM BR OVC003
      TEMPO 0109/0112 2SM BR OVC002
     FM011400 11004KT P6SM SCT005 BKN015
     FM011800 13008KT P6SM BKN040
      TEMPO 0118/0122 3SM SHRA BKN025
     FM020000 10006KT P6SM SCT030 SCT060 BKN100=

USA.gov is the U.S. government's official web portal to all federal, state and local government web resources and services.